createdAt,value
2017-09-19T00:00:08.548Z,19.55
2017-09-19T00:02:35.213Z,20.10
2017-09-19T00:05:01.903Z,20.15
2017-09-19T00:07:28.568Z,18.58
2017-09-19T00:09:55.260Z,19.67
2017-09-19T00:12:21.925Z,22.95
2017-09-19T00:14:48.628Z,17.73
2017-09-19T00:17:15.296Z,21.37
2017-09-19T00:19:41.961Z,19.42
2017-09-19T00:22:08.631Z,23.48
2017-09-19T00:24:35.303Z,23.10
2017-09-19T00:27:01.968Z,19.15
2017-09-19T00:29:28.644Z,20.90
2017-09-19T00:31:55.304Z,18.17
2017-09-19T00:34:21.967Z,19.80
2017-09-19T00:36:48.660Z,21.05
2017-09-19T00:39:15.323Z,25.62
2017-09-19T00:41:42.015Z,22.40
2017-09-19T00:44:08.684Z,20.85
2017-09-19T00:46:35.360Z,24.00
2017-09-19T00:49:02.027Z,24.98
2017-09-19T00:51:28.687Z,28.17
2017-09-19T00:53:55.371Z,21.37
2017-09-19T00:56:22.035Z,25.10
2017-09-19T00:58:48.728Z,22.70
2017-09-19T01:01:15.391Z,15.98
2017-09-19T01:03:42.087Z,19.37
2017-09-19T01:06:08.747Z,20.55
2017-09-19T01:08:35.415Z,24.37
2017-09-19T01:11:02.080Z,15.13
2017-09-19T01:13:28.751Z,20.58
2017-09-19T01:15:55.422Z,19.50
2017-09-19T01:18:22.083Z,25.73
2017-09-19T01:20:48.751Z,20.10
2017-09-19T01:23:15.415Z,22.65
2017-09-19T01:25:42.103Z,24.48
2017-09-19T01:28:08.770Z,16.45
2017-09-19T01:30:35.476Z,23.40
2017-09-19T01:33:02.141Z,21.80
2017-09-19T01:35:28.807Z,23.45
2017-09-19T01:37:55.484Z,21.23
2017-09-19T01:40:22.156Z,21.83
2017-09-19T01:42:48.825Z,19.00
2017-09-19T01:45:15.487Z,22.58
2017-09-19T01:47:42.159Z,21.70
2017-09-19T01:50:08.827Z,21.50
2017-09-19T01:52:36.360Z,23.33
2017-09-19T01:55:03.028Z,26.40
2017-09-19T01:57:29.692Z,28.60
2017-09-19T01:59:56.355Z,25.17
2017-09-19T02:02:23.020Z,27.58
2017-09-19T02:04:49.684Z,25.83
2017-09-19T02:07:16.351Z,26.27
2017-09-19T02:09:43.011Z,26.37
2017-09-19T02:12:09.679Z,27.80
2017-09-19T02:14:36.368Z,24.70
2017-09-19T02:17:03.031Z,21.98
2017-09-19T02:19:29.732Z,21.35
2017-09-19T02:21:56.397Z,24.37
2017-09-19T02:24:23.096Z,22.20
2017-09-19T02:26:49.763Z,19.40
2017-09-19T02:29:16.427Z,22.35
2017-09-19T02:31:43.092Z,17.83
2017-09-19T02:34:09.755Z,17.52
2017-09-19T02:36:36.420Z,19.10
2017-09-19T02:39:03.100Z,20.52
2017-09-19T02:41:29.796Z,14.82
2017-09-19T02:43:56.459Z,16.42
2017-09-19T02:46:23.188Z,13.70
2017-09-19T02:48:49.852Z,17.30
2017-09-19T02:51:16.515Z,16.55
2017-09-19T02:53:43.197Z,14.98
2017-09-19T02:56:09.874Z,14.05
2017-09-19T02:58:36.539Z,13.95
2017-09-19T03:01:03.203Z,13.82
2017-09-19T03:03:29.892Z,14.70
2017-09-19T03:05:56.559Z,13.80
2017-09-19T03:08:23.220Z,16.58
2017-09-19T03:10:49.888Z,14.40
2017-09-19T03:13:16.552Z,12.07
2017-09-19T03:15:43.220Z,17.65
2017-09-19T03:18:09.891Z,17.58
2017-09-19T03:20:36.559Z,11.98
2017-09-19T03:23:03.223Z,13.65
2017-09-19T03:25:29.901Z,14.35
2017-09-19T03:27:56.571Z,15.45
2017-09-19T03:30:23.234Z,16.10
2017-09-19T03:32:49.907Z,14.70
2017-09-19T03:35:16.568Z,14.10
2017-09-19T03:37:43.255Z,15.23
2017-09-19T03:40:09.925Z,15.75
2017-09-19T03:42:36.613Z,16.35
2017-09-19T03:45:03.275Z,18.52
2017-09-19T03:47:29.945Z,14.60
2017-09-19T03:49:56.616Z,17.65
2017-09-19T03:52:23.288Z,14.00
2017-09-19T03:54:50.004Z,18.77
2017-09-19T03:57:16.708Z,17.00
2017-09-19T03:59:43.391Z,13.25
2017-09-19T04:02:10.056Z,14.18
2017-09-19T04:04:36.719Z,15.10
2017-09-19T04:07:03.379Z,13.85
2017-09-19T04:09:30.043Z,15.57
2017-09-19T04:11:56.712Z,14.65
2017-09-19T04:14:23.377Z,14.02
2017-09-19T04:16:50.072Z,18.00
2017-09-19T04:19:16.752Z,17.23
2017-09-19T04:21:43.440Z,24.75
2017-09-19T04:24:10.116Z,22.37
2017-09-19T04:26:36.816Z,54.67
2017-09-19T04:29:03.483Z,16.10
2017-09-19T04:31:30.171Z,19.40
2017-09-19T04:33:56.841Z,16.02
2017-09-19T04:36:23.504Z,18.02
2017-09-19T04:38:50.176Z,19.20
2017-09-19T04:41:16.836Z,13.95
2017-09-19T04:43:43.500Z,15.85
2017-09-19T04:46:10.196Z,15.30
2017-09-19T04:48:36.893Z,14.90
2017-09-19T04:51:03.567Z,14.95
2017-09-19T04:53:30.259Z,12.60
2017-09-19T04:55:56.925Z,13.20
2017-09-19T04:58:23.639Z,14.55
2017-09-19T05:00:50.315Z,16.98
2017-09-19T05:03:17.011Z,15.02
2017-09-19T05:05:43.679Z,19.95
2017-09-19T05:08:10.370Z,15.15
2017-09-19T05:10:37.035Z,16.55
2017-09-19T05:13:03.699Z,18.20
2017-09-19T05:15:30.364Z,17.65
2017-09-19T05:17:57.024Z,21.90
2017-09-19T05:20:23.692Z,17.70
2017-09-19T05:22:50.372Z,15.48
2017-09-19T05:25:17.061Z,22.27
2017-09-19T05:27:43.732Z,15.48
2017-09-19T05:30:10.424Z,19.62
2017-09-19T05:32:37.091Z,17.70
2017-09-19T05:35:03.787Z,17.60
2017-09-19T05:37:30.455Z,18.95
2017-09-19T05:39:57.148Z,16.15
2017-09-19T05:42:23.819Z,16.62
2017-09-19T05:44:50.596Z,16.52
2017-09-19T05:47:17.260Z,18.87
2017-09-19T05:49:43.963Z,19.75
2017-09-19T05:52:10.624Z,23.83
2017-09-19T05:54:37.296Z,22.73
2017-09-19T05:57:03.960Z,19.83
2017-09-19T05:59:30.632Z,22.70
2017-09-19T06:01:57.300Z,24.73
2017-09-19T06:04:23.967Z,22.15
2017-09-19T06:06:50.660Z,30.80
2017-09-19T06:09:23.136Z,26.58
2017-09-19T06:11:49.839Z,21.37
2017-09-19T06:14:16.504Z,19.20
2017-09-19T06:16:43.208Z,24.52
2017-09-19T06:19:09.875Z,19.60
2017-09-19T06:21:36.544Z,20.15
2017-09-19T06:24:03.208Z,20.65
2017-09-19T06:26:29.872Z,17.30
2017-09-19T06:28:56.536Z,16.42
2017-09-19T06:31:23.200Z,16.62
2017-09-19T06:33:49.863Z,16.55
2017-09-19T06:36:16.532Z,19.60
2017-09-19T06:38:43.219Z,17.40
2017-09-19T06:41:09.892Z,17.85
2017-09-19T06:43:36.605Z,17.40
2017-09-19T06:46:03.271Z,17.37
2017-09-19T06:48:29.975Z,16.00
2017-09-19T06:50:56.639Z,18.20
2017-09-19T06:53:23.309Z,16.75
2017-09-19T06:55:49.976Z,15.63
2017-09-19T06:58:16.639Z,15.57
2017-09-19T07:00:43.329Z,16.12
2017-09-19T07:03:10.004Z,15.40
2017-09-19T07:05:36.704Z,15.55
2017-09-19T07:08:03.367Z,15.90
2017-09-19T07:10:30.059Z,14.50
2017-09-19T07:12:56.733Z,14.50
2017-09-19T07:15:23.433Z,18.30
2017-09-19T07:17:50.124Z,13.18
2017-09-19T07:20:16.816Z,14.15
2017-09-19T07:22:43.519Z,14.90
2017-09-19T07:25:10.191Z,15.25
2017-09-19T07:27:36.884Z,15.35
2017-09-19T07:30:03.553Z,16.55
2017-09-19T07:32:30.243Z,15.82
2017-09-19T07:34:56.913Z,16.77
2017-09-19T07:37:23.600Z,15.77
2017-09-19T07:39:50.272Z,18.05
2017-09-19T07:42:16.968Z,17.62
2017-09-19T07:44:43.640Z,16.45
2017-09-19T07:47:10.307Z,18.60
2017-09-19T07:49:36.983Z,17.17
2017-09-19T07:52:03.652Z,18.65
2017-09-19T07:54:30.324Z,21.02
2017-09-19T07:56:56.987Z,19.08
2017-09-19T07:59:23.680Z,18.70
2017-09-19T08:01:50.347Z,16.35
2017-09-19T08:04:17.046Z,18.02
2017-09-19T08:06:43.732Z,20.37
2017-09-19T08:09:10.433Z,21.77
2017-09-19T08:11:37.096Z,20.75
2017-09-19T08:14:03.787Z,20.10
2017-09-19T08:16:30.483Z,22.40
2017-09-19T08:18:57.183Z,20.30
2017-09-19T08:21:23.855Z,25.33
2017-09-19T08:23:50.527Z,22.83
2017-09-19T08:26:17.205Z,24.73
2017-09-19T08:28:43.868Z,25.15
2017-09-19T08:31:10.537Z,22.92
2017-09-19T08:33:37.213Z,28.23
2017-09-19T08:36:03.894Z,23.27
2017-09-19T08:38:30.575Z,33.03
2017-09-19T08:40:57.240Z,34.08
2017-09-19T08:43:23.906Z,32.90
2017-09-19T08:45:50.940Z,33.83
2017-09-19T08:48:17.603Z,28.48
2017-09-19T08:50:44.320Z,33.63
2017-09-19T08:53:10.996Z,30.02
2017-09-19T08:55:37.935Z,31.98
2017-09-19T08:58:04.599Z,30.45
2017-09-19T09:00:31.273Z,33.13
2017-09-19T09:02:57.940Z,34.67
2017-09-19T09:05:24.612Z,35.75
2017-09-19T09:07:51.275Z,31.80
2017-09-19T09:10:17.950Z,35.95
2017-09-19T09:12:44.624Z,34.58
2017-09-19T09:15:11.316Z,32.47
2017-09-19T09:17:38.004Z,36.00
2017-09-19T09:20:04.680Z,33.65
2017-09-19T09:22:31.387Z,33.90
2017-09-19T09:24:58.063Z,31.52
2017-09-19T09:27:24.740Z,31.05
2017-09-19T09:29:51.405Z,31.73
2017-09-19T09:32:18.079Z,35.28
2017-09-19T09:34:44.750Z,37.25
2017-09-19T09:37:11.421Z,34.75
2017-09-19T09:39:38.087Z,37.20
2017-09-19T09:42:04.761Z,33.90
2017-09-19T09:44:31.422Z,35.13
2017-09-19T09:46:58.094Z,35.50
2017-09-19T09:49:24.784Z,40.47
2017-09-19T09:51:51.448Z,40.80
2017-09-19T09:54:18.139Z,39.92
2017-09-19T09:56:44.813Z,40.88
2017-09-19T09:59:11.479Z,34.60
2017-09-19T10:01:38.156Z,34.33
2017-09-19T10:04:04.867Z,34.07
2017-09-19T10:06:31.546Z,32.30
2017-09-19T10:08:58.211Z,33.53
2017-09-19T10:11:24.876Z,34.97
2017-09-19T10:13:51.539Z,33.97
2017-09-19T10:16:18.207Z,34.87
2017-09-19T10:18:44.915Z,34.63
2017-09-19T10:21:11.627Z,30.05
2017-09-19T10:23:38.296Z,34.15
2017-09-19T10:26:04.963Z,29.42
2017-09-19T10:28:31.632Z,32.50
2017-09-19T10:30:58.304Z,28.73
2017-09-19T10:33:24.971Z,32.65
2017-09-19T10:35:51.644Z,30.85
2017-09-19T10:38:18.324Z,31.40
2017-09-19T10:40:44.995Z,27.58
2017-09-19T10:43:11.691Z,25.40
2017-09-19T10:45:38.368Z,26.17
2017-09-19T10:48:05.040Z,26.23
2017-09-19T10:50:31.713Z,25.85
2017-09-19T10:52:58.387Z,23.12
2017-09-19T10:55:25.085Z,21.17
2017-09-19T10:57:51.764Z,22.87
2017-09-19T11:00:18.459Z,22.85
2017-09-19T11:02:45.143Z,23.80
2017-09-19T11:05:11.836Z,25.15
2017-09-19T11:07:38.510Z,24.42
2017-09-19T11:10:05.199Z,22.30
2017-09-19T11:12:31.871Z,23.13
2017-09-19T11:14:58.573Z,25.77
2017-09-19T11:17:25.239Z,27.27
2017-09-19T11:19:51.905Z,24.03
2017-09-19T11:22:18.567Z,23.87
2017-09-19T11:24:45.236Z,22.93
2017-09-19T11:27:11.928Z,20.37
2017-09-19T11:29:38.596Z,22.73
2017-09-19T11:32:05.283Z,19.70
2017-09-19T11:34:31.946Z,22.07
2017-09-19T11:36:58.649Z,20.80
2017-09-19T11:39:25.312Z,19.00
2017-09-19T11:41:51.999Z,15.60
2017-09-19T11:44:18.663Z,16.00
2017-09-19T11:46:45.356Z,15.93
2017-09-19T11:49:12.023Z,16.90
2017-09-19T11:51:38.716Z,15.57
2017-09-19T11:54:05.383Z,16.87
2017-09-19T11:56:32.120Z,16.23
2017-09-19T11:58:58.767Z,18.83
2017-09-19T12:01:25.433Z,16.60
2017-09-19T12:03:52.114Z,16.07
2017-09-19T12:06:19.115Z,15.20
2017-09-19T12:08:45.816Z,16.30
2017-09-19T12:11:12.480Z,16.30
2017-09-19T12:13:39.164Z,14.33
2017-09-19T12:16:05.836Z,16.13
2017-09-19T12:18:32.527Z,15.10
2017-09-19T12:20:59.192Z,17.67
2017-09-19T12:23:26.741Z,19.43
2017-09-19T12:25:53.411Z,18.85
2017-09-19T12:28:20.079Z,17.52
2017-09-19T12:30:46.752Z,18.77
2017-09-19T12:33:13.437Z,18.87
2017-09-19T12:35:40.111Z,17.55
2017-09-19T12:38:06.783Z,17.48
2017-09-19T12:40:33.483Z,18.67
2017-09-19T12:43:00.164Z,17.85
2017-09-19T12:45:26.897Z,17.98
2017-09-19T12:47:53.585Z,18.15
2017-09-19T12:50:20.385Z,16.23
2017-09-19T12:52:47.057Z,15.80
2017-09-19T12:55:13.728Z,16.55
2017-09-19T12:57:40.400Z,17.73
2017-09-19T13:00:07.073Z,17.98
2017-09-19T13:02:33.751Z,17.83
2017-09-19T13:05:00.427Z,18.92
2017-09-19T13:07:27.148Z,19.37
2017-09-19T13:09:53.821Z,19.33
2017-09-19T13:12:20.516Z,17.80
2017-09-19T13:14:47.188Z,19.42
2017-09-19T13:17:13.890Z,22.13
2017-09-19T13:19:40.558Z,21.30
2017-09-19T13:22:07.263Z,20.30
2017-09-19T13:24:33.927Z,20.80
2017-09-19T13:27:00.588Z,21.90
2017-09-19T13:29:27.255Z,25.60
2017-09-19T13:31:59.720Z,23.20
2017-09-19T13:34:26.392Z,22.37
2017-09-19T13:36:53.092Z,23.60
2017-09-19T13:39:19.755Z,23.38
2017-09-19T13:41:46.424Z,25.02
2017-09-19T13:44:13.120Z,24.05
2017-09-19T13:46:39.789Z,23.17
2017-09-19T13:49:06.477Z,24.27
2017-09-19T13:51:33.139Z,22.90
2017-09-19T13:53:59.832Z,23.38
2017-09-19T13:56:26.496Z,21.87
2017-09-19T13:58:53.159Z,20.55
2017-09-19T14:01:19.823Z,21.35
2017-09-19T14:03:46.490Z,23.45
2017-09-19T14:06:13.168Z,22.87
2017-09-19T14:08:39.839Z,23.35
2017-09-19T14:11:06.527Z,23.50
2017-09-19T14:13:33.191Z,21.80
2017-09-19T14:15:59.895Z,23.05
2017-09-19T14:18:26.559Z,22.52
2017-09-19T14:20:53.223Z,22.70
2017-09-19T14:23:19.888Z,23.95
2017-09-19T14:25:46.558Z,24.42
2017-09-19T14:28:13.218Z,22.52
2017-09-19T14:30:39.902Z,23.40
2017-09-19T14:33:06.580Z,21.67
2017-09-19T14:35:33.243Z,23.95
2017-09-19T14:37:59.908Z,24.08
2017-09-19T14:40:26.575Z,23.92
2017-09-19T14:42:53.239Z,23.15
2017-09-19T14:45:19.908Z,24.60
2017-09-19T14:47:46.601Z,21.83
2017-09-19T14:50:13.272Z,20.23
2017-09-19T14:52:39.984Z,20.52
2017-09-19T14:55:06.656Z,18.90
2017-09-19T14:57:33.328Z,17.52
2017-09-19T14:59:59.995Z,18.12
2017-09-19T15:02:26.664Z,19.27
2017-09-19T15:04:53.336Z,18.92
2017-09-19T15:07:20.035Z,21.23
2017-09-19T15:09:46.708Z,21.37
2017-09-19T15:12:13.384Z,19.52
2017-09-19T15:14:40.076Z,21.08
2017-09-19T15:17:06.739Z,18.77
2017-09-19T15:19:33.444Z,19.87
2017-09-19T15:22:00.108Z,21.17
2017-09-19T15:24:26.775Z,21.33
2017-09-19T15:26:53.441Z,19.33
2017-09-19T15:29:20.112Z,19.60
2017-09-19T15:31:46.776Z,21.48
2017-09-19T15:34:13.649Z,19.30
2017-09-19T15:36:40.312Z,18.62
2017-09-19T15:39:06.979Z,17.73
2017-09-19T15:41:33.671Z,17.75
2017-09-19T15:44:00.340Z,18.62
2017-09-19T15:46:27.008Z,20.27
2017-09-19T15:48:53.688Z,21.17
2017-09-19T15:51:20.386Z,21.62
2017-09-19T15:53:47.052Z,21.17
2017-09-19T15:56:13.724Z,19.33
2017-09-19T15:58:40.396Z,24.30
2017-09-19T16:01:07.068Z,21.23
2017-09-19T16:03:33.742Z,21.50
2017-09-19T16:06:01.067Z,22.20
2017-09-19T16:08:27.727Z,21.70
2017-09-19T16:10:54.438Z,20.23
2017-09-19T16:13:21.109Z,22.75
2017-09-19T16:15:47.796Z,21.00
2017-09-19T16:18:14.551Z,21.58
2017-09-19T16:20:41.297Z,23.70
2017-09-19T16:23:07.968Z,23.40
2017-09-19T16:25:34.718Z,23.98
2017-09-19T16:28:01.439Z,22.58
2017-09-19T16:30:28.105Z,20.75
2017-09-19T16:32:54.796Z,22.27
2017-09-19T16:35:21.493Z,21.12
2017-09-19T16:37:48.321Z,22.30
2017-09-19T16:40:15.036Z,22.80
2017-09-19T16:42:41.720Z,21.55
2017-09-19T16:45:08.438Z,20.75
2017-09-19T16:47:35.140Z,19.30
2017-09-19T16:50:01.851Z,20.65
2017-09-19T16:52:28.560Z,20.90
2017-09-19T16:54:55.237Z,20.20
2017-09-19T16:57:21.911Z,21.02
2017-09-19T16:59:48.676Z,21.27
2017-09-19T17:02:15.342Z,21.20
2017-09-19T17:04:42.015Z,19.70
2017-09-19T17:07:08.748Z,22.20
2017-09-19T17:09:35.440Z,20.98
2017-09-19T17:12:02.107Z,20.48
2017-09-19T17:14:28.795Z,22.92
2017-09-19T17:16:55.467Z,23.00
2017-09-19T17:19:22.162Z,24.20
2017-09-19T17:21:48.826Z,24.50
2017-09-19T17:24:15.523Z,25.05
2017-09-19T17:26:42.187Z,26.60
2017-09-19T17:29:08.855Z,23.73
2017-09-19T17:31:35.544Z,25.10
2017-09-19T17:34:02.212Z,27.60
2017-09-19T17:36:28.888Z,26.62
2017-09-19T17:38:56.672Z,27.70
2017-09-19T17:41:23.345Z,27.77
2017-09-19T17:43:50.011Z,28.00
2017-09-19T17:46:16.679Z,28.30
2017-09-19T17:48:43.362Z,25.62
2017-09-19T17:51:10.032Z,23.45
2017-09-19T17:53:36.757Z,24.40
2017-09-19T17:56:03.469Z,28.92
2017-09-19T17:58:30.135Z,26.23
2017-09-19T18:00:56.815Z,27.27
2017-09-19T18:03:23.489Z,26.42
2017-09-19T18:05:50.274Z,27.60
2017-09-19T18:08:16.936Z,28.00
2017-09-19T18:10:43.608Z,28.17
2017-09-19T18:13:10.272Z,28.40
2017-09-19T18:15:36.935Z,26.75
2017-09-19T18:18:03.600Z,25.65
2017-09-19T18:20:30.268Z,27.08
2017-09-19T18:22:56.963Z,26.77
2017-09-19T18:25:23.627Z,29.27
2017-09-19T18:27:50.288Z,26.52
2017-09-19T18:30:16.964Z,27.52
2017-09-19T18:32:43.655Z,31.33
2017-09-19T18:35:10.327Z,31.90
2017-09-19T18:37:36.994Z,31.08
2017-09-19T18:40:03.666Z,27.98
2017-09-19T18:42:30.334Z,27.80
2017-09-19T18:44:57.007Z,25.65
2017-09-19T18:47:23.692Z,32.35
2017-09-19T18:49:50.383Z,32.33
2017-09-19T18:52:17.043Z,29.77
2017-09-19T18:54:43.803Z,32.65
2017-09-19T18:57:10.467Z,30.02
2017-09-19T18:59:37.131Z,32.55
2017-09-19T19:02:03.795Z,30.75
2017-09-19T19:04:30.463Z,30.25
2017-09-19T19:06:57.147Z,33.58
2017-09-19T19:09:23.813Z,33.03
2017-09-19T19:11:50.516Z,30.33
2017-09-19T19:14:17.213Z,30.08
2017-09-19T19:16:43.908Z,27.73
2017-09-19T19:19:10.571Z,27.90
2017-09-19T19:21:37.276Z,34.50
2017-09-19T19:24:03.939Z,30.52
2017-09-19T19:26:30.627Z,30.27
2017-09-19T19:28:57.292Z,24.17
2017-09-19T19:31:23.995Z,30.27
2017-09-19T19:33:50.665Z,26.08
2017-09-19T19:36:17.342Z,26.35
2017-09-19T19:38:44.019Z,31.05
2017-09-19T19:41:10.693Z,26.92
2017-09-19T19:43:37.387Z,27.10
2017-09-19T19:46:04.056Z,25.55
2017-09-19T19:48:30.763Z,26.23
2017-09-19T19:50:57.439Z,27.17
2017-09-19T19:53:24.157Z,27.17
2017-09-19T19:55:50.849Z,26.25
2017-09-19T19:58:17.511Z,24.52
2017-09-19T20:00:44.200Z,24.45
2017-09-19T20:03:10.871Z,26.25
2017-09-19T20:05:37.544Z,26.75
2017-09-19T20:08:04.208Z,23.55
2017-09-19T20:10:30.899Z,30.10
2017-09-19T20:12:57.565Z,23.35
2017-09-19T20:15:24.267Z,27.40
2017-09-19T20:17:50.936Z,28.58
2017-09-19T20:20:17.639Z,25.85
2017-09-19T20:22:44.307Z,26.40
2017-09-19T20:25:11.017Z,26.45
2017-09-19T20:27:37.773Z,28.65
2017-09-19T20:30:04.455Z,28.55
2017-09-19T20:32:31.120Z,28.30
2017-09-19T20:34:57.783Z,28.30
2017-09-19T20:37:24.452Z,29.05
2017-09-19T20:39:51.118Z,26.77
2017-09-19T20:42:17.783Z,26.48
2017-09-19T20:44:44.453Z,26.15
2017-09-19T20:47:11.139Z,25.25
2017-09-19T20:49:37.817Z,30.17
2017-09-19T20:52:04.512Z,31.85
2017-09-19T20:54:31.180Z,29.77
2017-09-19T20:56:57.884Z,26.75
2017-09-19T20:59:24.547Z,27.35
2017-09-19T21:01:51.211Z,29.30
2017-09-19T21:04:23.707Z,31.75
2017-09-19T21:06:56.205Z,29.95
2017-09-19T21:09:28.520Z,27.27
2017-09-19T21:12:00.920Z,32.55
2017-09-19T21:14:33.336Z,31.60
2017-09-19T21:17:05.796Z,30.37
2017-09-19T21:19:32.095Z,30.35
2017-09-19T21:21:58.763Z,36.65
2017-09-19T21:24:25.427Z,29.12
2017-09-19T21:26:52.116Z,29.70
2017-09-19T21:29:18.811Z,31.62
2017-09-19T21:31:45.471Z,34.03
2017-09-19T21:34:12.159Z,34.47
2017-09-19T21:36:38.823Z,31.73
2017-09-19T21:39:05.492Z,33.92
2017-09-19T21:41:32.155Z,33.55
2017-09-19T21:43:58.827Z,29.80
2017-09-19T21:46:25.496Z,32.80
2017-09-19T21:48:52.163Z,32.65
2017-09-19T21:51:18.823Z,32.97
2017-09-19T21:53:45.483Z,33.08
2017-09-19T21:56:12.176Z,38.17
2017-09-19T21:58:38.847Z,37.03
2017-09-19T22:01:05.511Z,35.55
2017-09-19T22:03:32.196Z,32.53
2017-09-19T22:05:58.863Z,38.20
2017-09-19T22:08:25.528Z,41.67
2017-09-19T22:10:52.192Z,43.20
2017-09-19T22:13:18.856Z,37.97
2017-09-19T22:15:45.528Z,42.03
2017-09-19T22:18:12.191Z,33.78
2017-09-19T22:20:38.855Z,37.60
2017-09-19T22:23:05.520Z,37.88
2017-09-19T22:25:32.195Z,40.08
2017-09-19T22:27:58.884Z,40.00
2017-09-19T22:30:25.552Z,38.78
2017-09-19T22:32:52.247Z,39.78
2017-09-19T22:35:18.911Z,38.13
2017-09-19T22:37:45.575Z,35.70
2017-09-19T22:40:12.239Z,38.47
2017-09-19T22:42:38.903Z,39.00
2017-09-19T22:45:05.572Z,37.53
2017-09-19T22:47:32.235Z,38.70
2017-09-19T22:49:58.895Z,37.58
2017-09-19T22:52:25.560Z,40.80
2017-09-19T22:54:52.231Z,43.20
2017-09-19T22:57:19.692Z,46.13
2017-09-19T22:59:46.355Z,42.85
2017-09-19T23:02:13.019Z,45.83
2017-09-19T23:04:39.740Z,51.15
2017-09-19T23:07:06.393Z,48.95
2017-09-19T23:09:33.060Z,47.45
2017-09-19T23:11:59.729Z,47.00
2017-09-19T23:14:26.395Z,53.63
2017-09-19T23:16:53.059Z,48.25
2017-09-19T23:19:19.720Z,53.70
2017-09-19T23:21:46.384Z,50.30
2017-09-19T23:24:13.051Z,65.45
2017-09-19T23:26:39.716Z,59.80
2017-09-19T23:29:06.383Z,54.80
2017-09-19T23:31:33.057Z,55.40
2017-09-19T23:34:00.001Z,61.95
2017-09-19T23:36:26.687Z,60.65
2017-09-19T23:38:53.362Z,67.60
2017-09-19T23:41:20.032Z,65.70
2017-09-19T23:43:46.695Z,69.62
2017-09-19T23:46:13.359Z,59.08
2017-09-19T23:48:40.028Z,65.15
2017-09-19T23:51:06.700Z,61.92
2017-09-19T23:53:33.369Z,73.80
2017-09-19T23:56:00.040Z,71.62
2017-09-19T23:58:26.703Z,74.65
